• Join FlightAware (Why Join?)
  • Login
  • US Flag 
09:18AM EDT


 

Airport Tracker/Info


-or-


 

Live Flight TrackerFlight Track Log ✈ AFL150 ✈ 04-Feb-2014 ✈ UUEE / SVO - MUHA / HAV

Flight Track Log - Related Links

Times and Time Zones

All times are in EST time to prevent confusion due to time zone crossing. See the AFL150 flight status page for this flight to view local times or setup timezone preferences in your user account.

Time Position Orientation Groundspeed Altitude Reporting Facility
EST Latitude Longitude Course Direction KTS MPH feet Rate Location/Type
04:59AM 56.0738 37.1324 307° West  Level Estimated
05:00AM 56.1417 36.9680 307° West  Level Estimated
05:01AM 56.2094 36.8031 306° West  Level Estimated
05:02AM 56.2768 36.6375 306° West  Level Estimated
05:03AM 56.3440 36.4714 306° West  Level Estimated
05:04AM 56.4110 36.3046 306° West  Level Estimated
05:05AM 56.4778 36.1373 306° West  Level Estimated
05:06AM 56.5444 35.9694 306° West  Level Estimated
05:07AM 56.6107 35.8009 306° West  Level Estimated
05:08AM 56.6768 35.6318 305° West  Level Estimated
05:09AM 56.7427 35.4622 305° West  Level Estimated
05:10AM 56.8083 35.2919 305° West  Level Estimated
05:11AM 56.8737 35.1210 305° West  Level Estimated
05:12AM 56.9389 34.9496 305° West  Level Estimated
05:13AM 57.0038 34.7775 305° West  Level Estimated
05:14AM 57.0677 34.6071 305° West  Level Estimated
05:15AM 57.1313 34.4361 304° West  Level Estimated
05:16AM 57.1947 34.2645 304° West  Level Estimated
05:17AM 57.2578 34.0923 304° West  Level Estimated
05:18AM 57.3208 33.9196 304° West  Level Estimated
05:19AM 57.3834 33.7462 304° West  Level Estimated
05:20AM 57.4459 33.5723 304° West  Level Estimated
05:21AM 57.5081 33.3977 304° West  Level Estimated
05:22AM 57.5700 33.2226 303° West  Level Estimated
05:23AM 57.6318 33.0469 303° West  Level Estimated
05:24AM 57.6932 32.8706 303° West  Level Estimated
05:25AM 57.7545 32.6936 303° West  Level Estimated
05:26AM 57.8154 32.5161 303° West  Level Estimated
05:27AM 57.8762 32.3380 303° West  Level Estimated
05:28AM 57.9366 32.1593 303° West  Level Estimated
05:29AM 57.9969 31.9800 302° West  Level Estimated
05:30AM 58.0569 31.8000 302° West  Level Estimated
05:31AM 58.1166 31.6195 302° West  Level Estimated
05:32AM 58.1760 31.4384 302° West  Level Estimated
05:33AM 58.2352 31.2566 302° West  Level Estimated
05:34AM 58.2942 31.0743 302° West  Level Estimated
05:34AM 56.7016 30.7547 302° West 404 465 36,000  Level FlightAware ADS-B (EVDA / DGP)
05:35AM 56.7648 30.5930 306° West 408 470 36,000  Level FlightAware ADS-B (EVDA / DGP)
05:36AM 56.8252 30.4326 305° West 410 472 36,000  Level FlightAware ADS-B (EVDA / DGP)
05:37AM 56.8908 30.2547 304° West 410 472 36,000  Level FlightAware ADS-B (EVDA / DGP)
05:38AM 56.9574 30.0729 304° West 411 473 36,000  Level FlightAware ADS-B (EVDA / DGP)
05:39AM 57.0203 29.9000 304° West 411 473 36,000  Level FlightAware ADS-B (EVDA / DGP)
05:40AM 57.0810 29.7316 304° West 410 472 36,000  Level FlightAware ADS-B (EVDA / DGP)
05:41AM 57.1448 29.5535 304° West 409 471 36,000  Level FlightAware ADS-B (EVDA / DGP)
05:42AM 57.2065 29.3801 303° West 411 473 36,000  Level FlightAware ADS-B (EVDA / DGP)
05:43AM 57.2698 29.2011 303° West 413 475 36,000  Level FlightAware ADS-B (EVDA / DGP)
05:44AM 57.3215 29.0541 303° West 412 474 36,000  Level FlightAware ADS-B (EVDA / DGP)
05:45AM 57.3936 28.8472 303° West 413 475 36,000  Level FlightAware ADS-B (EVDA / DGP)
05:46AM 57.4553 28.6689 303° West 414 476 36,000  Level FlightAware ADS-B (EVDA / DGP)
05:47AM 57.5175 28.4877 303° West 415 478 36,000  Level FlightAware ADS-B (EVDA / DGP)
05:48AM 57.5772 28.3127 303° West 410 472 36,000  Level FlightAware ADS-B (EVDA / DGP)
05:49AM 57.6381 28.1327 302° West 408 470 36,000  Level FlightAware ADS-B (EVDA / DGP)
05:50AM 57.6984 27.9533 302° West 411 473 36,000  Level FlightAware ADS-B (EVDA / DGP)
05:51AM 57.7588 27.7724 302° West 412 474 36,000  Level FlightAware ADS-B (EVDA / DGP)
05:52AM 57.8184 27.5921 302° West 408 470 36,000  Level FlightAware ADS-B (EVDA / DGP)
05:53AM 57.8631 27.3996 294° West 407 468 36,000  Level FlightAware ADS-B (EVDA / DGP)
05:54AM 57.9027 27.2042 291° West 408 470 36,000  Level FlightAware ADS-B (EVDA / DGP)
05:55AM 57.9433 27.0025 291° West 408 470 36,000  Level FlightAware ADS-B (EVDA / DGP)
05:56AM 57.9807 26.8146 291° West 410 472 36,000  Level FlightAware ADS-B (EVDA / DGP)
05:57AM 58.0222 26.6039 290° West 410 472 36,000  Level FlightAware ADS-B (EVDA / DGP)
05:58AM 58.0615 26.4021 290° West 411 473 36,000  Level FlightAware ADS-B (EVDA / DGP)
05:59AM 58.0982 26.2124 290° West 411 473 36,000  Level FlightAware ADS-B (EVDA / DGP)
06:00AM 58.1385 26.0014 290° West 410 472 36,000  Level FlightAware ADS-B (EVDA / DGP)
06:01AM 58.1770 25.7975 290° West 410 472 36,000  Level FlightAware ADS-B (EVDA / DGP)
06:02AM 58.2151 25.5939 290° West 409 471 36,000  Level FlightAware ADS-B (EVDA / DGP)
06:03AM 58.2524 25.3921 289° West 409 471 36,000  Level FlightAware ADS-B (EVDA / DGP)
06:04AM 58.2882 25.1964 289° West 410 472 36,000  Level FlightAware ADS-B (EVDA / DGP)
06:05AM 58.3239 24.9996 289° West 410 472 36,000  Level FlightAware ADS-B (EVDA / DGP)
06:06AM 58.3614 24.7906 289° West 412 474 36,000  Level FlightAware ADS-B (EVDA / DGP)
06:07AM 58.3962 24.5944 289° West 411 473 36,000  Level FlightAware ADS-B (EVDA / DGP)
06:08AM 58.4331 24.3777 288° West 412 474 36,000  Level FlightAware ADS-B (EVDA / DGP)
06:19AM 58.6387 22.9684 294° West 417 480 36,000  Level FlightAware ADS-B (ESKB)
06:23AM 58.8920 21.1229 295° West 417 480 36,000  Level FlightAware ADS-B
06:24AM 58.9141 20.9942 288° West 420 483 36,000  Level FlightAware ADS-B
06:24AM 58.9405 20.8353 288° West 420 483 36,000  Level FlightAware ADS-B
06:25AM 58.9665 20.6766 288° West 421 484 36,000  Level FlightAware ADS-B
06:26AM 58.9824 20.5788 288° West 421 484 36,000  Level FlightAware ADS-B (ESKB)
06:26AM 59.0072 20.4249 287° West 421 484 36,000  Level FlightAware ADS-B (ESKB)
06:27AM 59.0203 20.3437 287° West 419 482 36,000  Level FlightAware ADS-B
06:27AM 59.0375 20.2356 287° West 418 481 36,000  Level FlightAware ADS-B
06:28AM 59.0530 20.1382 287° West 421 484 36,000  Level FlightAware ADS-B (ESKB)
06:28AM 59.0753 19.9968 287° West 420 483 36,000  Level FlightAware ADS-B (ESKB)
06:29AM 59.0875 19.9186 287° West 418 481 36,000  Level FlightAware ADS-B
06:29AM 59.1098 19.7751 287° West 420 483 36,000  Level FlightAware ADS-B (ESKB)
06:30AM 59.1301 19.6430 287° West 420 483 36,000  Level FlightAware ADS-B (ESKB)
06:31AM 59.1510 19.5069 287° West 419 482 36,000  Level FlightAware ADS-B (ESKB)
06:31AM 59.1753 19.3465 287° West 420 483 36,000  Level FlightAware ADS-B (ESKB)
06:32AM 59.1968 19.2032 286° West 421 484 36,000  Level FlightAware ADS-B (ESKB)
06:33AM 59.2189 19.0549 286° West 423 487 36,000  Level FlightAware ADS-B (ESKB)
06:33AM 59.2399 18.9131 286° West 424 488 36,000  Level FlightAware ADS-B
06:34AM 59.2627 18.7575 286° West 424 488 36,000  Level FlightAware ADS-B (ESKB)
06:35AM 59.2840 18.6101 286° West 424 488 36,000  Level FlightAware ADS-B (ESKB)
06:35AM 59.3047 18.4661 286° West 423 487 36,000  Level FlightAware ADS-B (ESKB)
06:36AM 59.3260 18.3164 286° West 422 486 36,000  Level FlightAware ADS-B (ESKB)
06:37AM 59.3464 18.1721 286° West 423 487 36,000  Level FlightAware ADS-B (ESKB)
06:37AM 59.3674 18.0219 285° West 424 488 36,000  Level FlightAware ADS-B (ESKB)
06:38AM 59.3878 17.8745 285° West 424 488 36,000  Level FlightAware ADS-B (ESKB)
06:39AM 59.4072 17.7329 285° West 425 489 36,000  Level FlightAware ADS-B (ESKB)
06:39AM 59.4272 17.5857 285° West 424 488 36,000  Level FlightAware ADS-B (ESKB)
06:40AM 59.4469 17.4393 285° West 424 488 36,000  Level FlightAware ADS-B (ESKB)
06:41AM 59.4671 17.2879 285° West 424 488 36,000  Level FlightAware ADS-B (ESKB)
06:41AM 59.4863 17.1429 285° West 424 488 36,000  Level FlightAware ADS-B (ESKB)
06:42AM 59.4986 17.0493 285° West 422 486 36,000  Level FlightAware ADS-B
06:42AM 59.5162 16.9134 284° West 425 489 36,000  Level FlightAware ADS-B (ESKB)
06:43AM 59.5350 16.7680 284° West 424 488 36,000  Level FlightAware ADS-B
06:43AM 59.5480 16.6663 284° West 425 489 36,000  Level FlightAware ADS-B
06:44AM 59.5553 16.6086 284° West 425 489 36,000  Level FlightAware ADS-B
06:44AM 59.5744 16.4575 284° West 428 493 36,000  Level FlightAware ADS-B (ESKB)
06:45AM 59.5907 16.3272 284° West 427 491 36,000  Level FlightAware ADS-B
06:46AM 59.6033 16.2251 284° West 426 490 36,000  Level FlightAware ADS-B (ESKB)
06:46AM 59.6237 16.0594 284° West 426 490 36,000  Level FlightAware ADS-B
06:47AM 59.6376 15.9453 284° West 426 490 36,000  Level FlightAware ADS-B
06:47AM 59.6558 15.7947 284° West 426 490 36,000  Level FlightAware ADS-B
06:48AM 59.6700 15.6758 283° West 428 493 36,000  Level FlightAware ADS-B
06:49AM 59.6941 15.4712 283° West 428 493 36,000  Level FlightAware ADS-B
06:49AM 59.7077 15.3543 283° West 428 493 36,000  Level FlightAware ADS-B
06:50AM 59.7283 15.1762 283° West 429 494 36,000  Level FlightAware ADS-B
06:50AM 59.7411 15.0642 283° West 427 491 36,000  Level FlightAware ADS-B
06:51AM 59.7546 14.9454 283° West 428 493 36,000  Level FlightAware ADS-B
06:52AM 59.7715 14.7940 283° West 429 494 36,000  Level FlightAware ADS-B
06:52AM 59.7850 14.6728 282° West 428 493 36,000  Level FlightAware ADS-B
06:53AM 59.8042 14.4970 282° West 430 495 36,000  Level FlightAware ADS-B
06:53AM 59.8178 14.3709 282° West 431 496 36,000  Level FlightAware ADS-B
06:54AM 59.8424 14.1425 282° West 436 502 36,000  Level FlightAware ADS-B
06:55AM 59.8613 13.9630 282° West 439 505 36,000  Level FlightAware ADS-B
06:56AM 59.8736 13.8447 282° West 441 507 36,000  Level FlightAware ADS-B
06:56AM 59.8863 13.7217 282° West 443 510 36,000  Level FlightAware ADS-B
06:57AM 59.9101 13.4865 282° West 443 510 36,000  Level FlightAware ADS-B
06:58AM 59.9274 13.3622 286° West 448 516 36,000  Level FlightAware ADS-B
06:58AM 59.9531 13.1927 287° West 450 518 36,000  Level FlightAware ADS-B
06:59AM 59.9877 12.9607 287° West 451 519 36,000  Level FlightAware ADS-B
07:00AM 60.0059 12.8383 287° West 453 521 36,000  Level FlightAware ADS-B
07:00AM 60.0233 12.7206 287° West 454 522 36,000  Level FlightAware ADS-B
07:01AM 60.0579 12.4824 286° West 457 526 36,000  Level FlightAware ADS-B
07:02AM 60.0754 12.3602 286° West 457 526 36,000  Level FlightAware ADS-B
07:02AM 60.0928 12.2382 286° West 459 528 36,000  Level FlightAware ADS-B
07:03AM 60.1129 12.0962 286° West 461 531 36,000  Level FlightAware ADS-B
07:04AM 60.1317 11.9615 286° West 463 533 36,000  Level FlightAware ADS-B
07:04AM 60.1495 11.8343 286° West 463 533 36,000  Level FlightAware ADS-B
07:05AM 60.1663 11.7125 286° West 462 532 36,000  Level FlightAware ADS-B
07:05AM 60.1951 11.5023 285° West 459 528 36,000  Level FlightAware ADS-B
07:06AM 60.2122 11.3749 285° West 458 527 36,000  Level FlightAware ADS-B
07:07AM 60.2350 11.2048 285° West 458 527 36,000  Level FlightAware ADS-B
07:07AM 60.2522 11.0748 285° West 459 528 36,000  Level FlightAware ADS-B
07:08AM 60.2757 10.8955 285° West 459 528 36,000  Level FlightAware ADS-B
07:08AM 60.2926 10.7652 285° West 460 529 36,000  Level FlightAware ADS-B
07:09AM 60.3163 10.5809 285° West 461 531 36,000  Level FlightAware ADS-B
07:10AM 60.3331 10.4489 284° West 462 532 36,000  Level FlightAware ADS-B
07:10AM 60.3484 10.3272 284° West 462 532 36,000  Level FlightAware ADS-B
07:11AM 60.3652 10.1933 284° West 464 534 36,000  Level FlightAware ADS-B
07:11AM 60.3808 10.0672 284° West 465 535 36,000  Level FlightAware ADS-B
07:12AM 60.4095 9.8326 284° West 465 535 36,000  Level FlightAware ADS-B
07:14AM 60.4712 9.3149 284° West 459 528 36,000  Level FlightAware ADS-B
07:15AM 60.5051 9.0223 283° West 458 527 36,000  Level FlightAware ADS-B
07:18AM 60.5824 8.3310 283° West 462 532 36,000  Level FlightAware ADS-B
07:21AM 60.6633 7.5655 282° West 471 542 36,000  Level FlightAware ADS-B (EGBP)
07:22AM 60.6812 7.3897 282° West 469 540 36,000  Level FlightAware ADS-B (EGBP)
07:22AM 60.6986 7.2184 282° West 464 534 36,000  Level FlightAware ADS-B (EGBP)
07:23AM 60.7136 7.0667 281° West 464 534 36,000  Level FlightAware ADS-B (EGBP)
07:24AM 60.7317 6.8814 281° West 467 537 36,000  Level FlightAware ADS-B (EGBP)
07:24AM 60.7484 6.7076 281° West 461 531 36,000  Level FlightAware ADS-B (EGBP)
07:25AM 60.7644 6.5391 281° West 461 531 36,000  Level FlightAware ADS-B (EGBP)
07:26AM 60.7810 6.3623 281° West 461 531 36,000  Level FlightAware ADS-B (EGBP)
07:26AM 60.7949 6.2114 281° West 458 527 36,000  Level FlightAware ADS-B (EGBP)
07:27AM 60.8116 6.0281 281° West 458 527 36,000  Level FlightAware ADS-B (EGBP)
07:28AM 60.8275 5.8505 281° West 460 529 36,000  Level FlightAware ADS-B (EGBP)
07:28AM 60.8425 5.6806 280° West 461 531 36,000  Level FlightAware ADS-B (EGBP)
07:31AM 60.8820 5.2137 280° West  Level Estimated
07:32AM 60.9007 4.9854 280° West  Level Estimated
07:33AM 60.9191 4.7570 279° West  Level Estimated
07:34AM 60.9370 4.5282 279° West  Level Estimated
07:35AM 60.9546 4.2993 279° West  Level Estimated
07:36AM 60.9717 4.0700 279° West  Level Estimated
07:37AM 60.9885 3.8405 279° West  Level Estimated
07:38AM 61.0049 3.6108 278° West  Level Estimated
07:39AM 61.0209 3.3809 278° West  Level Estimated
07:40AM 61.0365 3.1507 278° West  Level Estimated
07:41AM 61.0517 2.9203 278° West  Level Estimated
07:42AM 61.0665 2.6896 278° West  Level Estimated
07:43AM 61.0809 2.4588 277° West  Level Estimated
07:44AM 61.0949 2.2277 277° West  Level Estimated
07:45AM 61.1086 1.9965 277° West  Level Estimated
07:46AM 61.1218 1.7650 277° West  Level Estimated
07:47AM 61.1347 1.5334 277° West  Level Estimated
07:48AM 61.1471 1.3016 276° West  Level Estimated
07:49AM 61.1591 1.0696 276° West  Level Estimated
07:50AM 61.1708 0.8374 276° West  Level Estimated
07:51AM 61.1820 0.6051 276° West  Level Estimated
07:52AM 61.1929 0.3725 276° West  Level Estimated
07:53AM 61.2034 0.1399 275° West  Level Estimated
07:54AM 61.2134 -0.0930 275° West  Level Estimated
07:55AM 61.2231 -0.3259 275° West  Level Estimated
07:56AM 61.2323 -0.5590 275° West  Level Estimated
07:57AM 61.2412 -0.7922 275° West  Level Estimated
07:58AM 61.2497 -1.0256 274° West  Level Estimated
07:59AM 61.2577 -1.2591 274° West  Level Estimated
08:00AM 61.2654 -1.4927 274° West  Level Estimated
08:01AM 61.2726 -1.7264 274° West  Level Estimated
08:02AM 61.2795 -1.9603 274° West  Level Estimated
08:03AM 61.2859 -2.1942 273° West  Level Estimated
08:04AM 61.2920 -2.4282 273° West  Level Estimated
08:05AM 61.2976 -2.6623 273° West  Level Estimated
08:06AM 61.3029 -2.8965 273° West  Level Estimated
08:07AM 61.3077 -3.1307 273° West  Level Estimated
08:08AM 61.3121 -3.3651 272° West  Level Estimated
08:09AM 61.3162 -3.5995 272° West  Level Estimated
08:10AM 61.3198 -3.8339 272° West  Level Estimated
08:11AM 61.3230 -4.0684 272° West  Level Estimated
08:12AM 61.3258 -4.3029 272° West  Level Estimated
08:13AM 61.3283 -4.5375 271° West  Level Estimated
08:14AM 61.3303 -4.7721 271° West  Level Estimated
08:15AM 61.3319 -5.0068 271° West  Level Estimated
08:16AM 61.3331 -5.2414 271° West  Level Estimated
08:17AM 61.3339 -5.4761 271° West  Level Estimated
08:18AM 61.3343 -5.7108 270° West  Level Estimated
08:19AM 61.3343 -5.9455 270° West  Level Estimated
08:20AM 61.3338 -6.1802 270° West  Level Estimated
08:21AM 61.3330 -6.4149 270° West  Level Estimated
08:22AM 61.3318 -6.6495 269° West  Level Estimated
08:23AM 61.3302 -6.8842 269° West  Level Estimated
08:24AM 61.3281 -7.1188 269° West  Level Estimated
08:25AM 61.3257 -7.3534 269° West  Level Estimated
08:26AM 61.3228 -7.5879 269° West  Level Estimated
08:27AM 61.3196 -7.8224 268° West  Level Estimated
08:28AM 61.3159 -8.0568 268° West  Level Estimated
08:29AM 61.3119 -8.2912 268° West  Level Estimated
08:30AM 61.3074 -8.5255 268° West  Level Estimated
08:31AM 61.3026 -8.7598 268° West  Level Estimated
08:32AM 61.2973 -8.9940 267° West  Level Estimated
08:33AM 61.2916 -9.2281 267° West  Level Estimated
08:34AM 61.2855 -9.4621 267° West  Level Estimated
08:35AM 61.2791 -9.6960 267° West  Level Estimated
08:36AM 61.2722 -9.9298 267° West  Level Estimated
08:37AM 61.2649 -10.1635 266° West  Level Estimated
08:38AM 61.2572 -10.3971 266° West  Level Estimated
08:39AM 61.2491 -10.6306 266° West  Level Estimated
08:40AM 61.2407 -10.8640 266° West  Level Estimated
08:41AM 61.2318 -11.0972 266° West  Level Estimated
08:42AM 61.2225 -11.3303 265° West  Level Estimated
08:43AM 61.2128 -11.5632 265° West  Level Estimated
08:44AM 61.2027 -11.7960 265° West  Level Estimated
08:45AM 61.1923 -12.0287 265° West  Level Estimated
08:46AM 61.1814 -12.2612 265° West  Level Estimated
08:47AM 61.1701 -12.4935 264° West  Level Estimated
08:48AM 61.1584 -12.7257 264° West  Level Estimated
08:49AM 61.1464 -12.9577 264° West  Level Estimated
08:50AM 61.1339 -13.1895 264° West  Level Estimated
08:51AM 61.1210 -13.4211 264° West  Level Estimated
08:52AM 61.1077 -13.6526 263° West  Level Estimated
08:53AM 61.0941 -13.8838 263° West  Level Estimated
08:54AM 61.0800 -14.1148 263° West  Level Estimated
08:55AM 61.0656 -14.3457 263° West  Level Estimated
08:56AM 61.0508 -14.5763 263° West  Level Estimated
08:57AM 61.0355 -14.8067 262° West  Level Estimated
08:58AM 61.0199 -15.0368 262° West  Level Estimated
08:59AM 61.0039 -15.2668 262° West  Level Estimated
09:00AM 60.9875 -15.4965 262° West  Level Estimated
09:01AM 60.9707 -15.7260 262° West  Level Estimated
09:02AM 60.9535 -15.9552 261° West  Level Estimated
09:03AM 60.9359 -16.1842 261° West  Level Estimated
09:04AM 60.9179 -16.4129 261° West  Level Estimated
09:05AM 60.8996 -16.6413 261° West  Level Estimated
09:06AM 60.8808 -16.8695 261° West  Level Estimated
09:07AM 60.8617 -17.0974 260° West  Level Estimated
09:08AM 60.8422 -17.3251 260° West  Level Estimated
09:09AM 60.8223 -17.5524 260° West  Level Estimated
09:10AM 60.8020 -17.7795 260° West  Level Estimated
09:11AM 60.7814 -18.0063 260° West  Level Estimated
09:12AM 60.7603 -18.2328 259° West  Level Estimated
09:13AM 60.7389 -18.4590 259° West  Level Estimated
09:14AM 60.7171 -18.6849 259° West  Level Estimated
09:15AM 60.6949 -18.9104 259° West  Level Estimated
09:16AM 60.6724 -19.1357 259° West  Level Estimated
09:17AM 60.6494 -19.3607 258° West  Level Estimated
09:18AM 60.6261 -19.5853 258° West  Level Estimated
09:19AM 60.6024 -19.8096 258° West  Level Estimated
09:20AM 60.5784 -20.0336 258° West  Level Estimated
09:21AM 60.5539 -20.2572 258° West  Level Estimated
09:22AM 60.5291 -20.4805 257° West  Level Estimated
09:23AM 60.5039 -20.7034 257° West  Level Estimated
09:24AM 60.4784 -20.9260 257° West  Level Estimated
09:25AM 60.4524 -21.1483 257° West  Level Estimated
09:26AM 60.4261 -21.3702 257° West  Level Estimated
09:27AM 60.3995 -21.5917 256° West  Level Estimated
09:28AM 60.3724 -21.8129 256° West  Level Estimated
09:29AM 60.3450 -22.0336 256° West  Level Estimated
09:30AM 60.3173 -22.2541 256° West  Level Estimated
09:31AM 60.2892 -22.4741 256° West  Level Estimated
09:32AM 60.2607 -22.6938 255° West  Level Estimated
09:33AM 60.2318 -22.9130 255° West  Level Estimated
09:34AM 60.2026 -23.1319 255° West  Level Estimated
09:35AM 60.1730 -23.3504 255° West  Level Estimated
09:36AM 60.1431 -23.5685 255° West  Level Estimated
09:37AM 60.1128 -23.7862 254° West  Level Estimated
09:38AM 60.0822 -24.0035 254° West  Level Estimated
09:39AM 60.0512 -24.2204 254° West  Level Estimated
09:40AM 60.0198 -24.4369 254° West  Level Estimated
09:41AM 59.9881 -24.6530 254° West  Level Estimated
09:42AM 59.9560 -24.8686 254° West  Level Estimated
09:43AM 59.9236 -25.0839 253° West  Level Estimated
09:44AM 59.8909 -25.2987 253° West  Level Estimated
09:45AM 59.8577 -25.5131 253° West  Level Estimated
09:46AM 59.8243 -25.7270 253° West  Level Estimated
09:47AM 59.7905 -25.9406 253° West  Level Estimated
09:48AM 59.7563 -26.1537 252° West  Level Estimated
09:49AM 59.7218 -26.3663 252° West  Level Estimated
09:50AM 59.6870 -26.5785 252° West  Level Estimated
09:51AM 59.6518 -26.7903 252° West  Level Estimated
09:52AM 59.6163 -27.0016 252° West  Level Estimated
09:53AM 59.5804 -27.2125 252° West  Level Estimated
09:54AM 59.5442 -27.4229 251° West  Level Estimated
09:55AM 59.5077 -27.6329 251° West  Level Estimated
09:56AM 59.4708 -27.8424 251° West  Level Estimated
09:57AM 59.4336 -28.0515 251° West  Level Estimated
09:58AM 59.3961 -28.2601 251° West  Level Estimated
09:59AM 59.3582 -28.4682 250° West  Level Estimated
10:00AM 59.3200 -28.6759 250° West  Level Estimated
10:01AM 59.2815 -28.8831 250° West  Level Estimated
10:02AM 59.2426 -29.0898 250° West  Level Estimated
10:03AM 59.2034 -29.2961 250° West  Level Estimated
10:04AM 59.1639 -29.5019 250° West  Level Estimated
10:05AM 59.1241 -29.7072 249° West  Level Estimated
10:06AM 59.0839 -29.9120 249° West  Level Estimated
10:07AM 59.0434 -30.1163 249° West  Level Estimated
10:08AM 59.0026 -30.3202 249° West  Level Estimated
10:09AM 58.9602 -30.5299 249° West  Level Estimated
10:10AM 58.9175 -30.7390 248° West  Level Estimated
10:11AM 58.8744 -30.9477 248° West  Level Estimated
10:12AM 58.8310 -31.1558 248° West  Level Estimated
10:13AM 58.7873 -31.3634 248° West  Level Estimated
10:14AM 58.7432 -31.5704 248° West  Level Estimated
10:15AM 58.6988 -31.7770 248° West  Level Estimated
10:16AM 58.6540 -31.9830 247° West  Level Estimated
10:17AM 58.6090 -32.1885 247° West  Level Estimated
10:18AM 58.5635 -32.3934 247° West  Level Estimated
10:19AM 58.5178 -32.5978 247° West  Level Estimated
10:20AM 58.4718 -32.8017 247° West  Level Estimated
10:21AM 58.4254 -33.0051 247° West  Level Estimated
10:22AM 58.3787 -33.2079 246° West  Level Estimated
10:23AM 58.3317 -33.4102 246° West  Level Estimated
10:24AM 58.2844 -33.6119 246° West  Level Estimated
10:25AM 58.2367 -33.8131 246° West  Level Estimated
10:26AM 58.1888 -34.0138 246° West  Level Estimated
10:27AM 58.1405 -34.2139 246° West  Level Estimated
10:28AM 58.0919 -34.4135 245° Southwest  Level Estimated
10:29AM 58.0430 -34.6125 245° Southwest  Level Estimated
10:30AM 57.9938 -34.8110 245° Southwest  Level Estimated
10:31AM 57.9443 -35.0089 245° Southwest  Level Estimated
10:32AM 57.8945 -35.2063 245° Southwest  Level Estimated
10:33AM 57.8443 -35.4031 244° Southwest  Level Estimated
10:34AM 57.7939 -35.5994 244° Southwest  Level Estimated
10:35AM 57.7432 -35.7952 244° Southwest  Level Estimated
10:36AM 57.6922 -35.9903 244° Southwest  Level Estimated
10:37AM 57.6408 -36.1850 244° Southwest  Level Estimated
10:38AM 57.5892 -36.3791 244° Southwest  Level Estimated
10:39AM 57.5373 -36.5726 244° Southwest  Level Estimated
10:40AM 57.4851 -36.7656 243° Southwest  Level Estimated
10:41AM 57.4325 -36.9580 243° Southwest  Level Estimated
10:42AM 57.3797 -37.1499 243° Southwest  Level Estimated
10:43AM 57.3266 -37.3412 243° Southwest  Level Estimated
10:44AM 57.2732 -37.5320 243° Southwest  Level Estimated
10:45AM 57.2196 -37.7222 243° Southwest  Level Estimated
10:46AM 57.1656 -37.9119 242° Southwest  Level Estimated
10:47AM 57.1113 -38.1010 242° Southwest  Level Estimated
10:48AM 57.0568 -38.2896 242° Southwest  Level Estimated
10:49AM 57.0020 -38.4776 242° Southwest  Level Estimated
10:50AM 56.9469 -38.6650 242° Southwest  Level Estimated
10:51AM 56.8915 -38.8519 242° Southwest  Level Estimated
10:52AM 56.8359 -39.0382 241° Southwest  Level Estimated
10:53AM 56.7799 -39.2240 241° Southwest  Level Estimated
10:54AM 56.7237 -39.4092 241° Southwest  Level Estimated
10:55AM 56.6672 -39.5939 241° Southwest  Level Estimated
10:56AM 56.6105 -39.7780 241° Southwest  Level Estimated
10:57AM 56.5535 -39.9616 241° Southwest  Level Estimated
10:58AM 56.4962 -40.1446 240° Southwest  Level Estimated
10:59AM 56.4386 -40.3271 240° Southwest  Level Estimated
10:59AM 63.1667 -54.8167 239° Southwest 570 656 37,000  Level Gander Center
11:00AM 56.3808 -40.5090 240° Southwest  Level Estimated
11:00AM 63.1167 -55.0500 245° Southwest 470 541 37,000  Level Gander Center
11:01AM 56.3227 -40.6903 240° Southwest  Level Estimated
11:01AM 63.0667 -55.3167 248° West 470 541 37,000  Level Gander Center
11:02AM 56.2643 -40.8711 240° Southwest  Level Estimated
11:02AM 63.0167 -55.5833 248° West 470 541 37,000  Level Gander Center
11:03AM 56.2027 -41.0607 240° Southwest  Level Estimated
11:03AM 62.9667 -55.8167 245° Southwest 460 529 37,000  Level Gander Center
11:04AM 56.1407 -41.2497 240° Southwest  Level Estimated
11:04AM 62.9167 -56.0833 248° West 460 529 37,000  Level Gander Center
11:05AM 56.0785 -41.4380 239° Southwest  Level Estimated
11:05AM 62.8667 -56.3333 246° West 450 518 37,000  Level Gander Center
11:06AM 62.8000 -56.6000 241° Southwest 460 529 37,000 300 Level Gander Center
11:07AM 62.7333 -56.8333 238° Southwest 460 529 37,700 480 Climbing Gander Center
11:08AM 62.6667 -57.0667 238° Southwest 460 529 38,000 120 Climbing Gander Center
11:09AM 62.6000 -57.2833 236° Southwest 460 529 38,000  Level Gander Center
11:10AM 62.5167 -57.5167 232° Southwest 440 506 38,000  Level Gander Center
11:11AM 62.4500 -57.7333 236° Southwest 470 541 38,000  Level Gander Center
11:12AM 62.3833 -57.9500 236° Southwest 470 541 38,000  Level Gander Center
11:13AM 62.3167 -58.1833 238° Southwest 460 529 38,000  Level Gander Center
11:14AM 62.2333 -58.4000 231° Southwest 450 518 38,000  Level Gander Center
11:16AM 62.1333 -58.6500 230° Southwest 460 529 38,000  Level Montreal Center
11:16AM 62.0833 -58.8333 240° Southwest 460 529 38,000  Level Gander Center
11:17AM 62.0167 -59.0500 237° Southwest 460 529 38,000  Level Gander Center
11:18AM 61.9500 -59.2667 237° Southwest 460 529 38,000  Level Gander Center
11:19AM 61.8833 -59.4833 237° Southwest 450 518 38,000  Level Gander Center
11:20AM 61.7833 -59.7000 226° Southwest 460 529 38,000  Level Gander Center
11:21AM 61.7000 -59.9167 231° Southwest 460 529 38,000  Level Gander Center
11:22AM 61.6333 -60.1333 237° Southwest 450 518 38,000  Level Gander Center
11:23AM 61.5667 -60.3333 235° Southwest 440 506 38,000  Level Gander Center
11:25AM 61.4167 -60.7667 234° Southwest 460 529 38,000  Level Gander Center
11:26AM 61.3500 -60.9667 235° Southwest 450 518 38,000  Level Gander Center
11:27AM 61.2667 -61.2167 235° Southwest 480 552 38,000  Level Gander Center
11:28AM 61.1833 -61.4167 229° Southwest 480 552 38,000  Level Gander Center
11:29AM 61.1167 -61.5833 230° Southwest 460 529 38,000  Level Gander Center
11:30AM 61.0333 -61.8000 232° Southwest 450 518 38,000  Level Gander Center
11:31AM 60.9500 -62.0000 229° Southwest 450 518 38,000  Level Gander Center
11:32AM 60.8667 -62.2000 229° Southwest 460 529 38,000  Level Gander Center
11:33AM 60.8000 -62.4000 236° Southwest 460 529 38,000  Level Gander Center
11:34AM 60.7167 -62.6333 234° Southwest 460 529 38,000  Level Gander Center
11:35AM 60.6333 -62.8333 230° Southwest 460 529 38,000  Level Gander Center
11:36AM 60.5500 -63.0333 230° Southwest 450 518 38,000  Level Gander Center
11:37AM 60.4667 -63.2333 230° Southwest 450 518 38,000  Level Gander Center
11:38AM 60.4000 -63.4333 236° Southwest 450 518 38,000  Level Gander Center
11:39AM 60.3167 -63.6333 230° Southwest 450 518 38,000  Level Gander Center
11:40AM 60.2333 -63.8333 230° Southwest 450 518 38,000  Level Gander Center
11:41AM 60.1500 -64.0167 228° Southwest 450 518 38,000  Level Gander Center
11:42AM 60.0667 -64.2167 230° Southwest 450 518 38,000  Level Gander Center
11:43AM 59.9833 -64.4000 228° Southwest 450 518 38,000  Level Gander Center
11:44AM 59.9167 -64.6000 236° Southwest 450 518 38,000  Level Gander Center
11:45AM 59.8167 -64.7500 217° Southwest 450 518 38,000  Level Gander Center
11:46AM 59.7500 -64.9500 237° Southwest 450 518 38,000  Level Gander Center
11:47AM 59.6667 -65.1333 228° Southwest 460 529 38,000  Level Gander Center
11:48AM 59.5833 -65.3333 231° Southwest 460 529 38,000  Level Gander Center
11:49AM 59.5000 -65.5167 228° Southwest 460 529 38,000  Level Gander Center
11:50AM 59.4167 -65.7333 233° Southwest 450 518 38,000  Level Gander Center
11:51AM 59.3167 -65.9167 223° Southwest 450 518 38,000  Level Gander Center
11:52AM 59.2333 -66.0667 223° Southwest 450 518 38,000  Level Gander Center
11:53AM 59.1667 -66.2500 235° Southwest 450 518 38,000  Level Gander Center
11:54AM 59.0667 -66.4333 223° Southwest 450 518 38,000  Level Gander Center
11:55AM 59.0000 -66.6167 235° Southwest 450 518 38,000  Level Gander Center
11:56AM 58.9000 -66.8000 223° Southwest 450 518 38,000  Level Gander Center
11:57AM 58.8333 -66.9833 235° Southwest 450 518 38,000  Level Gander Center
11:58AM 58.7333 -67.1667 224° Southwest 450 518 38,000  Level Gander Center
11:59AM 58.6667 -67.3167 230° Southwest 450 518 38,000  Level Gander Center
12:00PM 58.5833 -67.4833 226° Southwest 450 518 38,000  Level Gander Center
12:01PM 58.4833 -67.6667 224° Southwest 440 506 38,000  Level Gander Center
12:02PM 58.4167 -67.8333 233° Southwest 440 506 38,000  Level Gander Center
12:03PM 58.3167 -68.0167 224° Southwest 440 506 38,000  Level Gander Center
12:04PM 58.2167 -68.1833 221° Southwest 450 518 38,000  Level Gander Center
12:05PM 58.1500 -68.3667 235° Southwest 460 529 38,000  Level Gander Center
12:06PM 58.0667 -68.4833 217° Southwest 390 449 38,000  Level Gander Center
12:07PM 57.9667 -68.6167 215° Southwest 450 518 38,000  Level Gander Center
12:08PM 57.8500 -68.7833 217° Southwest 450 518 38,000  Level Gander Center
12:09PM 57.7500 -68.9167 215° Southwest 450 518 38,000  Level Gander Center
12:10PM 57.6500 -69.0500 216° Southwest 450 518 38,000  Level Gander Center
12:11PM 57.5500 -69.1833 216° Southwest 450 518 38,000  Level Gander Center
12:12PM 57.4500 -69.3167 216° Southwest 450 518 38,000  Level Gander Center
12:13PM 57.3500 -69.4500 216° Southwest 450 518 38,000  Level Gander Center
12:14PM 57.2500 -69.5833 216° Southwest 450 518 38,000  Level Gander Center
12:15PM 57.1667 -69.7333 224° Southwest 440 506 38,000  Level Gander Center
12:16PM 57.0500 -69.8500 209° Southwest 440 506 38,000  Level Gander Center
12:17PM 56.9667 -69.9833 221° Southwest 440 506 38,000  Level Gander Center
12:18PM 56.8500 -70.1167 212° Southwest 440 506 38,000  Level Gander Center
12:19PM 56.7667 -70.2167 213° Southwest 440 506 38,000  Level Gander Center
12:20PM 56.6500 -70.3500 212° Southwest 440 506 38,000  Level Gander Center
12:21PM 56.5333 -70.5000 215° Southwest 440 506 38,000  Level Gander Center
12:22PM 56.4500 -70.6000 214° Southwest 440 506 38,000  Level Gander Center
12:23PM 56.3500 -70.7333 216° Southwest 440 506 38,000  Level Gander Center
12:24PM 56.2500 -70.8500 213° Southwest 440 506 38,000  Level Gander Center
12:25PM 56.1500 -70.9833 217° Southwest 440 506 38,000  Level Gander Center
12:26PM 56.0333 -71.1000 209° Southwest 440 506 38,000  Level Gander Center
12:27PM 55.9500 -71.2333 222° Southwest 440 506 38,000  Level Gander Center
12:28PM 55.8333 -71.3500 209° Southwest 440 506 38,000  Level Gander Center
12:29PM 55.7500 -71.4500 214° Southwest 430 495 38,000  Level Gander Center
12:30PM 55.6333 -71.5667 209° Southwest 440 506 38,000  Level Gander Center
12:31PM 55.5333 -71.7000 217° Southwest 440 506 38,000  Level Gander Center
12:32PM 55.4500 -71.8167 218° Southwest 430 495 38,000  Level Gander Center
12:33PM 55.3333 -71.9333 210° Southwest 440 506 38,000  Level Gander Center
12:34PM 55.2333 -72.0333 210° Southwest 430 495 38,000  Level Gander Center
12:35PM 55.1500 -72.1500 219° Southwest 430 495 38,000  Level Gander Center
12:36PM 55.0500 -72.2833 217° Southwest 430 495 38,000  Level Gander Center
12:37PM 54.9333 -72.4000 210° Southwest 420 483 38,000  Level Gander Center
12:38PM 54.8500 -72.5167 219° Southwest 430 495 38,000  Level Gander Center
12:39PM 54.7333 -72.6000 202° Southwest 420 483 38,000  Level Gander Center
12:40PM 54.6333 -72.7167 214° Southwest 420 483 38,000  Level Gander Center
12:41PM 54.5500 -72.8333 219° Southwest 430 495 38,000  Level Gander Center
12:42PM 54.4500 -72.9667 218° Southwest 430 495 38,000  Level Gander Center
12:43PM 54.3333 -73.0500 203° Southwest 430 495 38,000  Level Gander Center
12:44PM 54.2500 -73.1667 219° Southwest 430 495 38,000  Level Gander Center
12:45PM 54.1500 -73.2833 214° Southwest 420 483 38,000  Level Gander Center
12:46PM 54.0500 -73.3667 206° Southwest 420 483 38,000  Level Gander Center
12:47PM 53.9500 -73.4833 214° Southwest 420 483 38,000  Level Gander Center
12:48PM 53.8500 -73.6000 215° Southwest 420 483 38,000  Level Gander Center
12:49PM 53.7500 -73.6833 206° Southwest 420 483 38,000  Level Gander Center
12:50PM 53.6500 -73.8000 215° Southwest 420 483 38,000  Level Gander Center
12:51PM 53.5500 -73.8667 202° Southwest 420 483 38,000  Level Gander Center
12:52PM 53.4333 -73.9500 203° Southwest 420 483 38,000  Level Gander Center
12:53PM 53.3333 -74.0667 215° Southwest 420 483 38,000  Level Gander Center
12:54PM 53.2333 -74.1500 207° Southwest 420 483 38,000  Level Gander Center
12:56PM 53.0833 -74.2000 191° South 410 472 38,000  Level Montreal Center
12:57PM 52.9833 -74.2833 207° Southwest 410 472 38,000  Level Montreal Center
12:58PM 52.8833 -74.3667 207° Southwest 410 472 38,000  Level Montreal Center
12:59PM 52.8000 -74.4667 216° Southwest 410 472 38,000  Level Montreal Center
01:00PM 52.7000 -74.5500 207° Southwest 410 472 38,000  Level Montreal Center
01:01PM 52.6000 -74.6333 207° Southwest 410 472 38,000  Level Montreal Center
01:02PM 52.4833 -74.7167 204° Southwest 410 472 38,000  Level Montreal Center
01:03PM 52.3667 -74.8000 204° Southwest 410 472 38,000  Level Montreal Center
01:04PM 52.2667 -74.8667 202° Southwest 400 460 38,000  Level Montreal Center
01:05PM 52.1667 -74.9500 207° Southwest 410 472 38,000  Level Montreal Center
01:06PM 52.0500 -75.0333 204° Southwest 400 460 38,000  Level Montreal Center
01:07PM 51.9500 -75.1167 207° Southwest 410 472 38,000  Level Montreal Center
01:08PM 51.8500 -75.2000 207° Southwest 410 472 38,000  Level Montreal Center
01:09PM 51.7500 -75.2833 207° Southwest 410 472 38,000  Level Montreal Center
01:10PM 51.6500 -75.3667 207° Southwest 410 472 38,000  Level Montreal Center
01:11PM 51.5500 -75.4167 197° South 410 472 38,000  Level Montreal Center
01:12PM 51.4500 -75.5000 207° Southwest 410 472 38,000  Level Montreal Center
01:13PM 51.3333 -75.5833 204° Southwest 410 472 38,000  Level Montreal Center
01:14PM 51.2333 -75.6667 208° Southwest 410 472 38,000  Level Montreal Center
01:15PM 51.1333 -75.7500 208° Southwest 410 472 38,000  Level Montreal Center
01:16PM 51.0333 -75.8333 208° Southwest 410 472 38,000  Level Montreal Center
01:17PM 50.9333 -75.9167 208° Southwest 410 472 38,000  Level Montreal Center
01:18PM 50.8333 -76.0000 208° Southwest 410 472 38,000  Level Montreal Center
01:19PM 50.7333 -76.0500 198° South 400 460 38,000  Level Montreal Center
01:20PM 50.6167 -76.1167 200° South 410 472 38,000  Level Montreal Center
01:21PM 50.5167 -76.2000 208° Southwest 410 472 38,000  Level Montreal Center
01:22PM 50.4167 -76.2833 208° Southwest 410 472 38,000  Level Montreal Center
01:23PM 50.3167 -76.3667 208° Southwest 400 460 38,000  Level Montreal Center
01:24PM 50.2167 -76.4333 203° Southwest 400 460 38,000  Level Montreal Center
01:25PM 50.1000 -76.4833 195° South 400 460 38,000  Level Montreal Center
01:26PM 50.0000 -76.5667 208° Southwest 400 460 38,000  Level Montreal Center
01:27PM 49.9000 -76.6500 208° Southwest 400 460 38,000  Level Montreal Center
01:28PM 49.8000 -76.7167 203° Southwest 400 460 38,000  Level Montreal Center
01:29PM 49.7000 -76.8000 208° Southwest 390 449 38,000  Level Montreal Center
01:30PM 49.6000 -76.8500 198° South 390 449 38,000  Level Montreal Center
01:31PM 49.5000 -76.9167 203° Southwest 380 437 38,000  Level Montreal Center
01:32PM 49.4000 -77.0000 208° Southwest 410 472 38,000  Level Montreal Center
01:33PM 49.3000 -77.0667 204° Southwest 390 449 38,000  Level Montreal Center
01:34PM 49.2000 -77.1167 198° South 380 437 38,000  Level Montreal Center
01:35PM 49.1000 -77.2000 209° Southwest 400 460 38,000  Level Montreal Center
01:36PM 49.0000 -77.2667 204° Southwest 390 449 38,000  Level Montreal Center
01:37PM 48.9000 -77.3500 209° Southwest 390 449 38,000  Level Montreal Center
01:38PM 48.8000 -77.4000 198° South 390 449 38,000  Level Montreal Center
01:39PM 48.7000 -77.4667 204° Southwest 380 437 38,000  Level Montreal Center
01:40PM 48.6000 -77.5500 209° Southwest 380 437 38,000  Level Montreal Center
01:41PM 48.5000 -77.6167 204° Southwest 380 437 38,000  Level Montreal Center
01:42PM 48.4167 -77.6667 202° Southwest 380 437 38,000  Level Montreal Center
01:43PM 48.3167 -77.7333 204° Southwest 390 449 38,000  Level Montreal Center
01:44PM 48.2167 -77.8000 204° Southwest 390 449 38,000  Level Montreal Center
01:45PM 48.1167 -77.8500 198° South 380 437 38,000  Level Montreal Center
01:46PM 48.0167 -77.9333 209° Southwest 390 449 38,000  Level Montreal Center
01:47PM 47.9000 -77.9667 191° South 390 449 38,000  Level Montreal Center
01:48PM 47.8000 -78.0500 209° Southwest 390 449 38,000  Level Montreal Center
01:49PM 47.7000 -78.0833 193° South 390 449 38,000  Level Montreal Center
01:50PM 47.6000 -78.1667 209° Southwest 390 449 38,000  Level Montreal Center
01:51PM 47.5167 -78.2000 195° South 390 449 38,000  Level Montreal Center
01:52PM 47.4167 -78.2667 204° Southwest 390 449 38,000  Level Montreal Center
01:53PM 47.3167 -78.3167 199° South 380 437 38,000  Level Montreal Center
01:54PM 47.2167 -78.3667 199° South 370 426 38,000  Level Montreal Center
01:55PM 47.1000 -78.4333 201° Southwest 370 426 38,000  Level Montreal Center
01:56PM 47.0167 -78.4833 202° Southwest 370 426 38,000  Level Montreal Center
01:57PM 46.9167 -78.5500 204° Southwest 370 426 38,000  Level Montreal Center
01:58PM 46.8667 -78.5667 193° South 370 426 38,000  Level Toronto Center
01:59PM 46.7667 -78.6167 199° South 370 426 38,000  Level Toronto Center
02:00PM 46.6667 -78.6667 199° South 370 426 38,000  Level Toronto Center
02:01PM 46.5833 -78.7167 202° Southwest 360 414 38,000 -180 Level Toronto Center
02:07PM 46.0091 -79.0423 202° Southwest 329 379 36,800 -300 Descending FlightAware ADS-B (CYOW)
02:07PM 45.9745 -79.0611 201° Southwest 325 374 36,100 -480 Descending FlightAware ADS-B (CYOW)
02:09PM 45.8667 -79.1000 201° Southwest 330 380 36,000 -60 Descending Toronto Center
02:10PM 45.7667 -79.1500 199° South 340 391 36,000  Level Toronto Center
02:11PM 45.6833 -79.2000 203° Southwest 340 391 36,000  Level Toronto Center
02:12PM 45.5833 -79.2500 199° South 340 391 36,000  Level Toronto Center
02:13PM 45.5000 -79.2833 196° South 340 391 36,000  Level Toronto Center
02:14PM 45.4167 -79.3500 209° Southwest 340 391 36,000  Level Toronto Center
02:15PM 45.3167 -79.3667 187° South 340 391 36,000  Level Toronto Center
02:16PM 45.2333 -79.4167 203° Southwest 340 391 36,000  Level Toronto Center
02:17PM 45.1500 -79.4667 203° Southwest 340 391 36,000  Level Toronto Center
02:18PM 45.0500 -79.5167 199° South 350 403 36,000  Level Toronto Center
02:19PM 44.9667 -79.5833 210° Southwest 350 403 36,000  Level Toronto Center
02:20PM 44.8667 -79.6167 193° South 350 403 36,000  Level Toronto Center
02:21PM 44.7833 -79.6833 210° Southwest 350 403 36,000  Level Toronto Center
02:22PM 44.6833 -79.7000 187° South 350 403 36,000  Level Toronto Center
02:27PM 44.2787 -80.0661 187° South 321 369 36,000  Level FlightAware ADS-B (CYKF)
02:28PM 44.2174 -80.1208 213° Southwest 322 371 36,000  Level FlightAware ADS-B (CYKF)
02:28PM 44.1675 -80.1653 213° Southwest 322 371 36,000  Level FlightAware ADS-B (CYKF)
02:29PM 44.0994 -80.2260 213° Southwest 324 373 36,000  Level FlightAware ADS-B (CYKF)
02:30PM 44.0410 -80.2778 213° Southwest 324 373 36,000  Level FlightAware ADS-B (CYKF)
02:30PM 44.0061 -80.3087 212° Southwest 323 372 36,000  Level FlightAware ADS-B (CYKF)
02:31PM 43.9579 -80.3512 212° Southwest 323 372 36,000  Level FlightAware ADS-B (CYKF)
02:32PM 43.8976 -80.4044 212° Southwest 322 371 36,000  Level FlightAware ADS-B (CYKF)
02:33PM 43.8390 -80.4560 212° Southwest 323 372 36,000  Level FlightAware ADS-B (CYKF)
02:33PM 43.8087 -80.4827 212° Southwest 323 372 36,000  Level FlightAware ADS-B (CYKF)
02:34PM 43.7363 -80.5461 212° Southwest 323 372 36,000  Level FlightAware ADS-B (CYKF)
02:35PM 43.6902 -80.5864 212° Southwest 322 371 36,000  Level FlightAware ADS-B (CYKF)
02:35PM 43.6482 -80.6230 212° Southwest 323 372 36,000  Level FlightAware ADS-B (CYKF)
02:36PM 43.5873 -80.6761 212° Southwest 323 372 36,000  Level FlightAware ADS-B (CYKF)
02:36PM 43.5464 -80.7116 212° Southwest 324 373 36,000  Level FlightAware ADS-B (CYKF)
02:37PM 43.4867 -80.7634 212° Southwest 324 373 36,000  Level FlightAware ADS-B (CYKF)
02:38PM 43.4550 -80.7908 212° Southwest 325 374 36,000  Level FlightAware ADS-B (CYKF)
02:39PM 43.4550 -80.7908 212° Southwest 326 375 36,000  Level FlightAware ADS-B (CYKF)
02:40PM 43.3078 -80.9178 212° Southwest 326 375 36,000  Level FlightAware ADS-B (CYKF)
02:40PM 43.2555 -80.9628 212° Southwest 326 375 36,000  Level FlightAware ADS-B (CYKF)
02:41PM 43.2100 -81.0018 212° Southwest 327 376 36,000  Level FlightAware ADS-B (CYKF)
02:42PM 43.1560 -81.0482 212° Southwest 327 376 36,000  Level FlightAware ADS-B (CYKF)
02:42PM 43.1034 -81.0931 212° Southwest 326 375 36,000  Level FlightAware ADS-B (CYKF)
02:43PM 43.0560 -81.1335 212° Southwest 326 375 36,000  Level FlightAware ADS-B (CYKF)
02:44PM 42.9952 -81.1750 207° Southwest 338 389 36,000  Level FlightAware ADS-B (CYKF)
02:45PM 42.9174 -81.2235 205° Southwest 339 390 36,000  Level FlightAware ADS-B (CYKF)
02:46PM 42.7729 -81.3126 204° Southwest 337 388 36,000  Level FlightAware ADS-B (CYKF)
02:47PM 42.7115 -81.3504 204° Southwest 338 389 36,000  Level FlightAware ADS-B (CYKF)
02:47PM 42.6683 -81.3769 204° Southwest 338 389 36,000  Level FlightAware ADS-B (CYKF)
02:49PM 42.5795 -81.4312 204° Southwest 340 391 36,000  Level FlightAware ADS-B (CYKF)
02:49PM 42.5297 -81.4615 204° Southwest 340 391 36,000  Level FlightAware ADS-B (CYKF)
02:50PM 42.4345 -81.5194 204° Southwest 342 394 36,000  Level FlightAware ADS-B (CYKF)
02:51PM 42.3725 -81.5572 204° Southwest 342 394 36,000  Level Cleveland Center
02:52PM 42.2850 -81.6100 204° Southwest 343 395 36,000  Level Cleveland Center
02:53PM 42.1969 -81.6631 204° Southwest 344 396 36,000  Level Cleveland Center
02:54PM 42.1083 -81.7169 204° Southwest 346 398 36,000  Level Cleveland Center
02:55PM 42.0061 -81.7783 204° Southwest 343 395 36,000  Level Cleveland Center
02:56PM 41.9181 -81.8306 204° Southwest 343 395 36,000  Level Cleveland Center
02:57PM 41.8300 -81.8831 204° Southwest 343 395 36,000  Level Cleveland Center
02:58PM 41.7428 -81.9339 204° Southwest 341 392 36,000  Level Cleveland Center
02:59PM 41.6550 -81.9872 204° Southwest 344 396 36,000  Level Cleveland Center
03:00PM 41.5667 -82.0383 203° Southwest 345 397 36,000  Level Cleveland Center
03:01PM 41.4650 -82.0983 204° Southwest 342 394 36,000  Level Cleveland Center
03:02PM 41.3775 -82.1489 203° Southwest 342 394 36,000  Level Cleveland Center
03:03PM 41.2839 -82.1872 197° South 353 406 36,000  Level Cleveland Center
03:04PM 41.1889 -82.2228 196° South 354 407 36,000  Level Cleveland Center
03:05PM 41.0939 -82.2561 195° South 352 405 36,000  Level Cleveland Center
03:07PM 40.9994 -82.2906 195° South 351 404 36,000  Level Cleveland Center
03:08PM 40.8703 -82.3356 195° South 355 409 36,000  Level Indianapolis Center
03:09PM 40.7728 -82.3703 195° South 359 413 36,000  Level Indianapolis Center
03:10PM 40.6758 -82.4039 195° South 358 412 36,000  Level Indianapolis Center
03:11PM 40.5783 -82.4394 195° South 360 414 36,000  Level Indianapolis Center
03:12PM 40.4803 -82.4739 195° South 362 417 36,000  Level Indianapolis Center
03:18PM 39.8392 -82.6584 195° South 392 451 36,000  Level FlightAware ADS-B (KPMH)
03:19PM 39.7627 -82.6623 182° South 392 451 36,000  Level FlightAware ADS-B (KPMH)
03:19PM 39.6860 -82.6661 182° South 394 453 36,000  Level FlightAware ADS-B (KPMH)
03:20PM 39.6106 -82.6699 182° South 395 455 36,000  Level FlightAware ADS-B (KPMH)
03:21PM 39.5553 -82.6726 182° South 397 457 36,000  Level FlightAware ADS-B (KPMH)
03:21PM 39.4865 -82.6759 182° South 398 458 36,000  Level FlightAware ADS-B (KPMH)
03:22PM 39.4227 -82.6792 182° South 400 460 36,000  Level FlightAware ADS-B (KPMH)
03:23PM 39.3490 -82.6827 182° South 403 464 36,000  Level FlightAware ADS-B (KPMH)
03:23PM 39.2851 -82.6859 182° South 404 465 36,000  Level FlightAware ADS-B (KPMH)
03:24PM 39.2118 -82.6894 182° South 405 466 36,000  Level FlightAware ADS-B (KPMH)
03:24PM 39.1575 -82.6920 182° South 406 467 36,000  Level FlightAware ADS-B (KPMH)
03:25PM 39.0746 -82.6960 182° South 407 468 36,000  Level FlightAware ADS-B (KPMH)
03:26PM 39.0135 -82.6989 182° South 407 468 36,000  Level FlightAware ADS-B (KPMH)
03:26PM 38.9363 -82.7027 182° South 408 470 36,000  Level FlightAware ADS-B (KPMH)
03:27PM 38.8597 -82.7065 182° South 410 472 36,000  Level FlightAware ADS-B (KPMH)
03:28PM 38.7904 -82.7098 182° South 411 473 36,000  Level FlightAware ADS-B (KPMH)
03:28PM 38.7081 -82.7137 182° South 410 472 36,000  Level FlightAware ADS-B (KPMH)
03:29PM 38.6338 -82.7173 182° South 409 471 36,000  Level FlightAware ADS-B (KPMH)
03:29PM 38.5761 -82.7194 182° South 410 472 36,000  Level Indianapolis Center
03:30PM 38.4639 -82.7239 182° South 404 465 36,000  Level Indianapolis Center
03:31PM 38.3525 -82.7300 182° South 400 460 36,000  Level Indianapolis Center
03:32PM 38.2406 -82.7350 182° South 400 460 36,000  Level Indianapolis Center
03:34PM 38.1292 -82.7400 182° South 400 460 36,000  Level Indianapolis Center
03:35PM 38.0186 -82.7481 183° South 399 459 36,000  Level Indianapolis Center
03:36PM 37.8875 -82.7536 182° South 402 463 36,000  Level Indianapolis Center
03:37PM 37.7764 -82.7594 182° South 399 459 36,000  Level Indianapolis Center
03:38PM 37.6667 -82.7736 186° South 395 455 36,000  Level Indianapolis Center
03:39PM 37.5697 -82.8214 201° Southwest 374 430 36,000  Level Indianapolis Center
03:40PM 37.4800 -82.8836 209° Southwest 368 423 36,000  Level Indianapolis Center
03:41PM 37.3878 -82.9433 207° Southwest 371 427 36,000  Level Indianapolis Center
03:42PM 37.2786 -83.0150 208° Southwest 378 435 36,000  Level Indianapolis Center
03:43PM 37.1861 -83.0761 208° Southwest 379 436 36,000  Level Indianapolis Center
03:44PM 37.0936 -83.1364 207° Southwest 377 434 36,000  Level Indianapolis Center
03:45PM 37.0011 -83.1961 207° Southwest 376 433 36,000  Level Indianapolis Center
03:46PM 36.9083 -83.2556 207° Southwest 376 433 36,000  Level Indianapolis Center
03:47PM 36.7994 -83.3258 207° Southwest 379 436 36,000  Level Indianapolis Center
03:48PM 36.7061 -83.3844 207° Southwest 378 435 36,000  Level Indianapolis Center
03:49PM 36.6128 -83.4450 208° Southwest 377 434 36,000  Level Indianapolis Center
03:50PM 36.5200 -83.5044 207° Southwest 374 430 36,000  Level Indianapolis Center
03:51PM 36.4281 -83.5636 207° Southwest 374 430 36,000  Level Indianapolis Center
03:52PM 36.3350 -83.6217 207° Southwest 374 430 36,000  Level Indianapolis Center
03:53PM 36.2242 -83.6931 207° Southwest 373 429 36,000  Level Indianapolis Center
03:54PM 36.1300 -83.7519 207° Southwest 376 433 36,000  Level Indianapolis Center
03:55PM 36.0683 -83.7922 208° Southwest 380 437 36,000  Level Atlanta Center
03:56PM 35.9747 -83.8539 208° Southwest 380 437 36,000  Level Atlanta Center
03:57PM 35.8767 -83.9031 202° Southwest 380 437 36,000  Level Atlanta Center
03:58PM 35.7661 -83.9314 192° South 392 451 36,000  Level Atlanta Center
04:03PM 35.1015 -84.0889 192° South 394 453 36,000  Level FlightAware ADS-B (KDZJ)
04:04PM 35.0304 -84.1059 191° South 393 452 36,000  Level FlightAware ADS-B (KDZJ)
04:05PM 34.9580 -84.1232 191° South 395 455 36,000  Level FlightAware ADS-B (KDZJ)
04:05PM 34.8917 -84.1390 191° South 395 455 36,000  Level FlightAware ADS-B (KDZJ)
04:06PM 34.8107 -84.1582 191° South 395 455 36,000  Level FlightAware ADS-B (KDZJ)
04:07PM 34.7377 -84.1756 191° South 396 456 36,000  Level FlightAware ADS-B (KDZJ)
04:07PM 34.6660 -84.1926 191° South 396 456 36,000  Level FlightAware ADS-B (KDZJ)
04:08PM 34.5989 -84.2084 191° South 395 455 36,000  Level FlightAware ADS-B (KDZJ)
04:09PM 34.5260 -84.2257 191° South 395 455 36,000  Level FlightAware ADS-B (KDZJ)
04:09PM 34.4439 -84.2451 191° South 397 457 36,000  Level FlightAware ADS-B (KDZJ)
04:10PM 34.3726 -84.2618 191° South 396 456 36,000  Level FlightAware ADS-B (KDZJ)
04:11PM 34.2967 -84.2796 191° South 396 456 36,000  Level FlightAware ADS-B (KDZJ)
04:11PM 34.2236 -84.2968 191° South 397 457 36,000  Level FlightAware ADS-B (KDZJ)
04:12PM 34.1483 -84.3145 191° South 398 458 36,000  Level FlightAware ADS-B (KDZJ)
04:13PM 34.0747 -84.3316 191° South 406 467 36,000  Level FlightAware ADS-B (KDZJ)
04:13PM 34.0023 -84.3485 191° South 398 458 36,000  Level FlightAware ADS-B (KDZJ)
04:15PM 33.9169 -84.3717 191° South 413 475 36,000 60 Level Atlanta Center
04:16PM 33.8042 -84.3964 190° South 407 468 36,200 480 Climbing Atlanta Center
04:17PM 33.6956 -84.4233 192° South 414 476 37,000 360 Climbing Atlanta Center
04:18PM 33.5681 -84.4378 185° South 408 470 37,000  Level Atlanta Center
04:19PM 33.4533 -84.4347 179° South 413 475 37,000  Level Atlanta Center
04:20PM 33.3364 -84.4342 180° South 413 475 37,000  Level Atlanta Center
04:21PM 33.2197 -84.4311 179° South 418 481 37,000  Level Atlanta Center
04:22PM 33.1153 -84.4308 180° South 418 481 37,000  Level Atlanta Center
04:23PM 32.9983 -84.4278 179° South 418 481 37,000  Level Atlanta Center
04:24PM 32.8814 -84.4247 179° South 423 487 37,000  Level Atlanta Center
04:25PM 32.7667 -84.4217 179° South 423 487 37,000  Level Atlanta Center
04:26PM 32.6497 -84.4186 179° South 423 487 37,000  Level Atlanta Center
04:27PM 32.5331 -84.4158 179° South 423 487 37,000  Level Atlanta Center
04:29PM 32.2953 -84.4089 179° South 423 487 37,000  Level Jacksonville Center
04:30PM 32.1847 -84.4072 179° South 429 494 37,000  Level Jacksonville Center
04:31PM 32.0678 -84.4053 179° South 429 494 37,000  Level Jacksonville Center
04:32PM 31.9467 -84.4033 179° South 434 499 37,000  Level Jacksonville Center
04:33PM 31.8278 -84.3989 178° South 434 499 37,000  Level Jacksonville Center
04:34PM 31.7067 -84.3969 179° South 434 499 37,000  Level Jacksonville Center
04:35PM 31.5878 -84.3950 179° South 439 505 37,000  Level Jacksonville Center
04:40PM 30.9313 -84.2151 179° South 457 526 37,000  Level FlightAware ADS-B (KTLH)
04:41PM 30.8339 -84.1631 155° Southeast 458 527 37,000  Level FlightAware ADS-B (KTLH)
04:42PM 30.7417 -84.1139 155° Southeast 459 528 37,000  Level FlightAware ADS-B (KTLH)
04:43PM 30.6502 -84.0651 155° Southeast 459 528 37,000  Level FlightAware ADS-B (KTLH)
04:43PM 30.5709 -84.0230 155° Southeast 460 529 37,000  Level FlightAware ADS-B (KTLH)
04:44PM 30.4953 -83.9828 155° Southeast 461 531 37,000  Level FlightAware ADS-B (KTLH)
04:44PM 30.4285 -83.9475 155° Southeast 463 533 37,000  Level FlightAware ADS-B (KTLH)
04:45PM 30.3382 -83.8997 155° Southeast 463 533 37,000  Level FlightAware ADS-B (KTLH)
04:46PM 30.2590 -83.8579 155° Southeast 464 534 37,000  Level FlightAware ADS-B (KTLH)
04:47PM 30.1827 -83.8177 156° South 465 535 37,000  Level FlightAware ADS-B (KTLH)
04:47PM 30.1723 -83.8122 156° South 465 535 37,000  Level FlightAware ADS-B (KTLH)
04:47PM 30.1023 -83.7754 156° South 467 537 37,000  Level FlightAware ADS-B (KTLH)
04:48PM 30.0742 -83.7606 156° South 466 536 37,000  Level FlightAware ADS-B (KTLH)
04:49PM 29.9849 -83.7138 156° South 466 536 37,000  Level FlightAware ADS-B (KTLH)
04:50PM 29.8217 -83.6300 156° South 458 527 37,000  Level Jacksonville Center
04:51PM 29.7053 -83.5692 156° South 458 527 37,000  Level Jacksonville Center
04:52PM 29.5969 -83.5136 156° South 458 527 37,000  Level Jacksonville Center
04:53PM 29.4825 -83.4533 155° Southeast 464 534 37,000  Level Jacksonville Center
04:54PM 29.3636 -83.3931 156° South 459 528 37,000  Level Jacksonville Center
04:55PM 29.2469 -83.3328 156° South 459 528 37,000  Level Jacksonville Center
05:01PM 28.5602 -82.9785 156° South 458 527 37,000  Level FlightAware ADS-B (KMCO)
05:01PM 28.4776 -82.9365 156° South 457 526 37,000  Level FlightAware ADS-B (KMCO)
05:02PM 28.4125 -82.9035 156° South 457 526 37,000  Level FlightAware ADS-B (KMCO)
05:03PM 28.3084 -82.8509 156° South 458 527 37,000  Level FlightAware ADS-B (KMCO)
05:03PM 28.2439 -82.8183 156° South 459 528 37,000  Level FlightAware ADS-B (KMCO)
05:04PM 28.0988 -82.7451 156° South 460 529 37,000  Level FlightAware ADS-B (KMCO)
05:06PM 27.9565 -82.6736 156° South 462 532 37,000  Level FlightAware ADS-B (KMCO)
05:06PM 27.8778 -82.6341 156° South 461 531 37,000  Level FlightAware ADS-B (KMCO)
05:07PM 27.8066 -82.5984 156° South 461 531 37,000  Level FlightAware ADS-B (KMCO)
05:08PM 27.7414 -82.5658 156° South 459 528 37,000  Level FlightAware ADS-B (KMCO)
05:08PM 27.6573 -82.5238 156° South 458 527 37,000  Level FlightAware ADS-B (KMCO)
05:09PM 27.5745 -82.4826 156° South 459 528 37,000  Level FlightAware ADS-B (KMCO)
05:10PM 27.5142 -82.4526 156° South 461 531 37,000  Level FlightAware ADS-B (KMCO)
05:10PM 27.4329 -82.4121 156° South 463 533 37,000  Level FlightAware ADS-B (KMCO)
05:11PM 27.3723 -82.3820 156° South 464 534 37,000  Level FlightAware ADS-B (KMCO)
05:11PM 27.2905 -82.3414 156° South 465 535 37,000  Level FlightAware ADS-B (KMCO)
05:16PM 26.7398 -82.0703 156° South 465 535 37,000  Level FlightAware ADS-B (KMCO)
05:17PM 26.6599 -82.0311 156° South 466 536 37,000  Level FlightAware ADS-B (KMCO)
05:17PM 26.5919 -81.9979 156° South 468 539 37,000  Level FlightAware ADS-B (KMCO)
05:18PM 26.5008 -81.9534 156° South 468 539 37,000  Level FlightAware ADS-B (KMCO)
05:19PM 26.4244 -81.9162 156° South 468 539 37,000  Level FlightAware ADS-B (KMCO)
05:19PM 26.3396 -81.8749 156° South 468 539 37,000  Level FlightAware ADS-B (KMCO)
05:20PM 26.2686 -81.8404 156° South 468 539 37,000  Level FlightAware ADS-B (KMCO)
05:21PM 26.1887 -81.8017 156° South 470 541 37,000  Level FlightAware ADS-B (KMCO)
05:21PM 26.0983 -81.7579 157° South 472 543 37,000  Level FlightAware ADS-B (KMCO)
05:22PM 25.9784 -81.6999 157° South 473 544 37,000  Level FlightAware ADS-B (KMCO)
05:25PM 25.6882 -81.5602 157° South 474 545 37,000  Level FlightAware ADS-B (KMCO)
05:26PM 25.5340 -81.4862 157° South 475 547 37,000 -120 Level FlightAware ADS-B (KMCO)
05:27PM 25.3994 -81.4244 157° South 473 544 36,800 -600 Descending Miami Center
05:28PM 25.2758 -81.3647 156° South 473 544 35,800 -1,020 Descending Miami Center
05:29PM 25.1544 -81.3075 157° South 473 544 34,800 -1,020 Descending Miami Center
05:30PM 25.0350 -81.2503 157° South 473 544 33,800 -1,020 Descending Miami Center
05:31PM 24.9175 -81.1933 156° South 473 544 32,800 -1,320 Descending Miami Center
05:32PM 24.7981 -81.1436 159° South 468 539 31,200 -1,800 Descending Miami Center
05:33PM 24.6797 -81.1167 168° South 452 520 29,200 -1,980 Descending Miami Center
05:34PM 24.5606 -81.1194 181° South 436 502 27,300 -1,800 Descending Miami Center
05:35PM 24.4514 -81.1361 188° South 413 475 25,600 -1,200 Descending Miami Center
05:36PM 24.3444 -81.1553 189° South 402 463 24,900 -300 Descending Miami Center
05:37PM 24.2372 -81.1722 188° South 397 457 25,000  Climbing Miami Center
05:38PM 24.1322 -81.1958 192° South 391 450 25,000 -60 Level Miami Center
05:39PM 24.0267 -81.2308 197° South 391 450 24,900 -1,380 Descending Miami Center
05:40PM 23.9331 -81.2911 210° Southwest 390 449 22,300 -2,640 Descending Miami Center
05:42PM 23.8271 -81.4086 225° Southwest  Level FlightAware Approximate
05:49PM 23.2601 -82.0742 226° Southwest  Level FlightAware Approximate
05:50PM 23.1780 -82.1680 226° Southwest  Level FlightAware Approximate
05:51PM 23.0905 -82.2523 241° Southwest  Level FlightAware Approximate
05:52PM 23.0150 -82.3516 223° Southwest  Level FlightAware Approximate
05:53PM 22.9667 -82.4000 223° Southwest  Level FlightAware Approximate
05:54PM 22.9891 -82.4091 223° Southwest  Level Estimated
05:55PM 22.9891 -82.4091 223° Southwest  Level Estimated
05:56PM 22.9891 -82.4091 223° Southwest  Level Estimated
05:57PM 22.9891 -82.4091 223° Southwest  Level Estimated
05:58PM 22.9891 -82.4091 223° Southwest  Level Estimated
05:59PM 22.9891 -82.4091 223° Southwest  Level Estimated
06:00PM 22.9891 -82.4091 223° Southwest  Level Estimated
06:01PM 22.9891 -82.4091 223° Southwest  Level Estimated
06:02PM 22.9891 -82.4091 223° Southwest  Level Estimated
06:03PM 22.9891 -82.4091 223° Southwest  Level Estimated
06:04PM 22.9891 -82.4091 223° Southwest  Level Estimated
06:05PM 22.9891 -82.4091 223° Southwest  Level Estimated
06:06PM 22.9891 -82.4091 223° Southwest  Level Estimated
06:07PM 22.9891 -82.4091 223° Southwest  Level Estimated
06:08PM 22.9891 -82.4091 223° Southwest  Level Estimated
06:09PM 22.9891 -82.4091 223° Southwest  Level Estimated
06:10PM 22.9891 -82.4091 223° Southwest  Level Estimated
06:11PM 22.9891 -82.4091 223° Southwest  Level Estimated
06:12PM 22.9891 -82.4091 223° Southwest  Level Estimated
06:13PM 22.9891 -82.4091 223° Southwest  Level Estimated
06:14PM 22.9891 -82.4091 223° Southwest  Level Estimated